sensor_id;sensor_type;location;lat;lon;timestamp;pressure;altitude;pressure_sealevel;temperature
37414;BMP280;23279;46.472;30.760;2023-10-08T00:01:34;77714.44;;;-146.33
37414;BMP280;23279;46.472;30.760;2023-10-08T00:04:00;77724.63;;;-146.33
37414;BMP280;23279;46.472;30.760;2023-10-08T00:06:29;77726.66;;;-146.33
37414;BMP280;23279;46.472;30.760;2023-10-08T00:08:55;77730.72;;;-146.33
37414;BMP280;23279;46.472;30.760;2023-10-08T00:11:28;77736.81;;;-146.33
37414;BMP280;23279;46.472;30.760;2023-10-08T00:13:56;77742.94;;;-146.33
37414;BMP280;23279;46.472;30.760;2023-10-08T00:16:22;77734.78;;;-146.33
37414;BMP280;23279;46.472;30.760;2023-10-08T00:18:47;77742.94;;;-146.33
37414;BMP280;23279;46.472;30.760;2023-10-08T00:21:20;77740.91;;;-146.33
37414;BMP280;23279;46.472;30.760;2023-10-08T00:23:51;77744.97;;;-146.33
37414;BMP280;23279;46.472;30.760;2023-10-08T00:28:37;77736.81;;;-146.33
37414;BMP280;23279;46.472;30.760;2023-10-08T00:31:05;77740.91;;;-146.33
37414;BMP280;23279;46.472;30.760;2023-10-08T00:33:38;77740.91;;;-146.33
37414;BMP280;23279;46.472;30.760;2023-10-08T00:36:04;77738.88;;;-146.33
37414;BMP280;23279;46.472;30.760;2023-10-08T00:38:48;77738.88;;;-146.33
37414;BMP280;23279;46.472;30.760;2023-10-08T00:41:24;77736.81;;;-146.33
37414;BMP280;23279;46.472;30.760;2023-10-08T00:43:54;77734.78;;;-146.33
37414;BMP280;23279;46.472;30.760;2023-10-08T00:46:22;77738.88;;;-146.33
37414;BMP280;23279;46.472;30.760;2023-10-08T00:48:53;77730.72;;;-146.33
37414;BMP280;23279;46.472;30.760;2023-10-08T00:51:22;77738.88;;;-146.33
37414;BMP280;23279;46.472;30.760;2023-10-08T00:53:54;77749.03;;;-146.33
37414;BMP280;23279;46.472;30.760;2023-10-08T00:56:26;77751.06;;;-146.33
37414;BMP280;23279;46.472;30.760;2023-10-08T00:59:09;77763.28;;;-146.33
37414;BMP280;23279;46.472;30.760;2023-10-08T01:01:42;77765.31;;;-146.33
37414;BMP280;23279;46.472;30.760;2023-10-08T01:04:18;77779.56;;;-146.33
37414;BMP280;23279;46.472;30.760;2023-10-08T01:06:50;77779.56;;;-146.33
37414;BMP280;23279;46.472;30.760;2023-10-08T01:09:19;77791.78;;;-146.33
37414;BMP280;23279;46.472;30.760;2023-10-08T01:12:09;77791.78;;;-146.33
37414;BMP280;23279;46.472;30.760;2023-10-08T01:14:37;77795.84;;;-146.33
37414;BMP280;23279;46.472;30.760;2023-10-08T01:17:04;77785.66;;;-146.33
37414;BMP280;23279;46.472;30.760;2023-10-08T01:19:31;77793.81;;;-146.33
37414;BMP280;23279;46.472;30.760;2023-10-08T01:22:03;77787.69;;;-146.33
37414;BMP280;23279;46.472;30.760;2023-10-08T01:24:31;77783.63;;;-146.33
37414;BMP280;23279;46.472;30.760;2023-10-08T01:26:57;77797.88;;;-146.33
37414;BMP280;23279;46.472;30.760;2023-10-08T01:29:23;77787.69;;;-146.33
37414;BMP280;23279;46.472;30.760;2023-10-08T01:31:50;77773.44;;;-146.33
37414;BMP280;23279;46.472;30.760;2023-10-08T01:34:18;77763.28;;;-146.33
37414;BMP280;23279;46.472;30.760;2023-10-08T01:36:43;77771.41;;;-146.33
37414;BMP280;23279;46.472;30.760;2023-10-08T01:39:10;77775.50;;;-146.33
37414;BMP280;23279;46.472;30.760;2023-10-08T01:41:43;77787.69;;;-146.33
37414;BMP280;23279;46.472;30.760;2023-10-08T01:44:08;77785.66;;;-146.33
37414;BMP280;23279;46.472;30.760;2023-10-08T01:46:33;77779.56;;;-146.33
37414;BMP280;23279;46.472;30.760;2023-10-08T01:51:11;77783.63;;;-146.33
37414;BMP280;23279;46.472;30.760;2023-10-08T01:53:44;77783.63;;;-146.33
37414;BMP280;23279;46.472;30.760;2023-10-08T01:56:10;77773.44;;;-146.33
37414;BMP280;23279;46.472;30.760;2023-10-08T01:58:36;77777.53;;;-146.33
37414;BMP280;23279;46.472;30.760;2023-10-08T02:01:01;77775.50;;;-146.33
37414;BMP280;23279;46.472;30.760;2023-10-08T02:03:27;77785.66;;;-146.33
37414;BMP280;23279;46.472;30.760;2023-10-08T02:05:55;77791.78;;;-146.33
37414;BMP280;23279;46.472;30.760;2023-10-08T02:08:24;77787.69;;;-146.33
37414;BMP280;23279;46.472;30.760;2023-10-08T02:10:51;77791.78;;;-146.33
37414;BMP280;23279;46.472;30.760;2023-10-08T02:13:18;77783.63;;;-146.33
37414;BMP280;23279;46.472;30.760;2023-10-08T02:15:45;77795.84;;;-146.33
37414;BMP280;23279;46.472;30.760;2023-10-08T02:18:11;77799.91;;;-146.33
37414;BMP280;23279;46.472;30.760;2023-10-08T02:20:39;77783.63;;;-146.33
37414;BMP280;23279;46.472;30.760;2023-10-08T02:23:04;77783.63;;;-146.33
37414;BMP280;23279;46.472;30.760;2023-10-08T02:25:31;77791.78;;;-146.33
37414;BMP280;23279;46.472;30.760;2023-10-08T02:27:56;77791.78;;;-146.33
37414;BMP280;23279;46.472;30.760;2023-10-08T02:30:23;77787.69;;;-146.33
37414;BMP280;23279;46.472;30.760;2023-10-08T02:32:48;77783.63;;;-146.33
37414;BMP280;23279;46.472;30.760;2023-10-08T02:35:15;77787.69;;;-146.33
37414;BMP280;23279;46.472;30.760;2023-10-08T02:39:52;77785.66;;;-146.33
37414;BMP280;23279;46.472;30.760;2023-10-08T02:42:18;77775.50;;;-146.33
37414;BMP280;23279;46.472;30.760;2023-10-08T02:44:43;77775.50;;;-146.33
37414;BMP280;23279;46.472;30.760;2023-10-08T02:47:09;77771.41;;;-146.33
37414;BMP280;23279;46.472;30.760;2023-10-08T02:49:47;77769.38;;;-146.33
37414;BMP280;23279;46.472;30.760;2023-10-08T02:52:18;77761.25;;;-146.33
37414;BMP280;23279;46.472;30.760;2023-10-08T02:54:43;77759.22;;;-146.33
37414;BMP280;23279;46.472;30.760;2023-10-08T02:57:09;77763.28;;;-146.33
37414;BMP280;23279;46.472;30.760;2023-10-08T02:59:36;77765.31;;;-146.33
37414;BMP280;23279;46.472;30.760;2023-10-08T03:02:11;77765.31;;;-146.33
37414;BMP280;23279;46.472;30.760;2023-10-08T03:04:44;77763.28;;;-146.33
37414;BMP280;23279;46.472;30.760;2023-10-08T03:07:19;77763.28;;;-146.33
37414;BMP280;23279;46.472;30.760;2023-10-08T03:09:52;77761.25;;;-146.33
37414;BMP280;23279;46.472;30.760;2023-10-08T03:12:29;77761.25;;;-146.33
37414;BMP280;23279;46.472;30.760;2023-10-08T03:15:00;77742.94;;;-146.33
37414;BMP280;23279;46.472;30.760;2023-10-08T03:17:30;77738.88;;;-146.33
37414;BMP280;23279;46.472;30.760;2023-10-08T03:20:02;77740.91;;;-146.33
37414;BMP280;23279;46.472;30.760;2023-10-08T03:22:48;77742.94;;;-146.33
37414;BMP280;23279;46.472;30.760;2023-10-08T03:25:15;77751.06;;;-146.33
37414;BMP280;23279;46.472;30.760;2023-10-08T03:27:46;77742.94;;;-146.33
37414;BMP280;23279;46.472;30.760;2023-10-08T03:30:13;77742.94;;;-146.33
37414;BMP280;23279;46.472;30.760;2023-10-08T03:32:44;77734.78;;;-146.33
37414;BMP280;23279;46.472;30.760;2023-10-08T03:35:10;77734.78;;;-146.33
37414;BMP280;23279;46.472;30.760;2023-10-08T03:37:36;77722.59;;;-146.33
37414;BMP280;23279;46.472;30.760;2023-10-08T03:40:15;77738.88;;;-146.33
37414;BMP280;23279;46.472;30.760;2023-10-08T03:43:08;77726.66;;;-146.33
37414;BMP280;23279;46.472;30.760;2023-10-08T03:45:45;77738.88;;;-146.33
37414;BMP280;23279;46.472;30.760;2023-10-08T03:48:18;77728.69;;;-146.33
37414;BMP280;23279;46.472;30.760;2023-10-08T03:50:47;77744.97;;;-146.33
37414;BMP280;23279;46.472;30.760;2023-10-08T03:53:22;77753.09;;;-146.33
37414;BMP280;23279;46.472;30.760;2023-10-08T03:55:48;77747.00;;;-146.33
37414;BMP280;23279;46.472;30.760;2023-10-08T03:58:17;77751.06;;;-146.33
37414;BMP280;23279;46.472;30.760;2023-10-08T04:01:03;77755.16;;;-146.33
37414;BMP280;23279;46.472;30.760;2023-10-08T04:03:36;77755.16;;;-146.33
37414;BMP280;23279;46.472;30.760;2023-10-08T04:06:16;77761.25;;;-146.33
37414;BMP280;23279;46.472;30.760;2023-10-08T04:08:47;77771.41;;;-146.33
37414;BMP280;23279;46.472;30.760;2023-10-08T04:11:26;77767.34;;;-146.33
37414;BMP280;23279;46.472;30.760;2023-10-08T04:13:55;77769.38;;;-146.33
37414;BMP280;23279;46.472;30.760;2023-10-08T04:16:24;77767.34;;;-146.33
37414;BMP280;23279;46.472;30.760;2023-10-08T04:18:53;77759.22;;;-146.33
37414;BMP280;23279;46.472;30.760;2023-10-08T04:21:22;77751.06;;;-146.33
37414;BMP280;23279;46.472;30.760;2023-10-08T04:23:47;77759.22;;;-146.33
37414;BMP280;23279;46.472;30.760;2023-10-08T04:26:19;77769.38;;;-146.33
37414;BMP280;23279;46.472;30.760;2023-10-08T04:31:03;77769.38;;;-146.33
37414;BMP280;23279;46.472;30.760;2023-10-08T04:33:41;77775.50;;;-146.33
37414;BMP280;23279;46.472;30.760;2023-10-08T04:36:07;77771.41;;;-146.33
37414;BMP280;23279;46.472;30.760;2023-10-08T04:38:33;77771.41;;;-146.33
37414;BMP280;23279;46.472;30.760;2023-10-08T04:41:05;77769.38;;;-146.33
37414;BMP280;23279;46.472;30.760;2023-10-08T04:43:34;77767.34;;;-146.33
37414;BMP280;23279;46.472;30.760;2023-10-08T04:46:03;77759.22;;;-146.33
37414;BMP280;23279;46.472;30.760;2023-10-08T04:48:48;77751.06;;;-146.33
37414;BMP280;23279;46.472;30.760;2023-10-08T04:51:17;77742.94;;;-146.33
37414;BMP280;23279;46.472;30.760;2023-10-08T04:53:43;77738.88;;;-146.33
37414;BMP280;23279;46.472;30.760;2023-10-08T04:56:11;77738.88;;;-146.33
37414;BMP280;23279;46.472;30.760;2023-10-08T04:58:46;77730.72;;;-146.33
37414;BMP280;23279;46.472;30.760;2023-10-08T05:01:14;77720.56;;;-146.33
37414;BMP280;23279;46.472;30.760;2023-10-08T05:03:53;77712.41;;;-146.33
37414;BMP280;23279;46.472;30.760;2023-10-08T05:06:29;77708.34;;;-146.33
37414;BMP280;23279;46.472;30.760;2023-10-08T05:09:10;77690.03;;;-146.33
37414;BMP280;23279;46.472;30.760;2023-10-08T05:11:46;77698.16;;;-146.33
37414;BMP280;23279;46.472;30.760;2023-10-08T05:14:31;77692.06;;;-146.33
37414;BMP280;23279;46.472;30.760;2023-10-08T05:17:06;77692.06;;;-146.33
37414;BMP280;23279;46.472;30.760;2023-10-08T05:19:38;77685.97;;;-146.33
37414;BMP280;23279;46.472;30.760;2023-10-08T05:22:16;77679.84;;;-146.33
37414;BMP280;23279;46.472;30.760;2023-10-08T05:24:56;77677.81;;;-146.33
37414;BMP280;23279;46.472;30.760;2023-10-08T05:27:52;77677.81;;;-146.33
37414;BMP280;23279;46.472;30.760;2023-10-08T05:30:19;77679.84;;;-146.33
37414;BMP280;23279;46.472;30.760;2023-10-08T05:32:56;77669.69;;;-146.33
37414;BMP280;23279;46.472;30.760;2023-10-08T05:35:41;77667.66;;;-146.33
37414;BMP280;23279;46.472;30.760;2023-10-08T05:40:18;77661.53;;;-146.33
37414;BMP280;23279;46.472;30.760;2023-10-08T05:43:03;77657.47;;;-146.33
37414;BMP280;23279;46.472;30.760;2023-10-08T05:45:48;77653.41;;;-146.33
37414;BMP280;23279;46.472;30.760;2023-10-08T05:48:33;77653.41;;;-146.33
37414;BMP280;23279;46.472;30.760;2023-10-08T05:51:10;77661.53;;;-146.33
37414;BMP280;23279;46.472;30.760;2023-10-08T05:53:48;77657.47;;;-146.33
37414;BMP280;23279;46.472;30.760;2023-10-08T05:56:15;77663.59;;;-146.33
37414;BMP280;23279;46.472;30.760;2023-10-08T05:58:53;77645.28;;;-146.33
37414;BMP280;23279;46.472;30.760;2023-10-08T06:01:39;77647.31;;;-146.33
37414;BMP280;23279;46.472;30.760;2023-10-08T06:04:06;77649.34;;;-146.33
37414;BMP280;23279;46.472;30.760;2023-10-08T06:07:06;77637.13;;;-146.33
37414;BMP280;23279;46.472;30.760;2023-10-08T06:09:42;77626.97;;;-146.33
37414;BMP280;23279;46.472;30.760;2023-10-08T06:12:15;77633.06;;;-146.33
37414;BMP280;23279;46.472;30.760;2023-10-08T06:14:55;77645.28;;;-146.33
37414;BMP280;23279;46.472;30.760;2023-10-08T06:17:33;77637.13;;;-146.33
37414;BMP280;23279;46.472;30.760;2023-10-08T06:20:10;77624.91;;;-146.33
37414;BMP280;23279;46.472;30.760;2023-10-08T06:22:42;77631.03;;;-146.33
37414;BMP280;23279;46.472;30.760;2023-10-08T06:25:07;77633.06;;;-146.33
37414;BMP280;23279;46.472;30.760;2023-10-08T06:27:48;77629.00;;;-146.33
37414;BMP280;23279;46.472;30.760;2023-10-08T06:30:15;77622.88;;;-146.33
37414;BMP280;23279;46.472;30.760;2023-10-08T06:34:53;77614.75;;;-146.33
37414;BMP280;23279;46.472;30.760;2023-10-08T06:37:18;77608.66;;;-146.33
37414;BMP280;23279;46.472;30.760;2023-10-08T06:39:44;77598.47;;;-146.33
37414;BMP280;23279;46.472;30.760;2023-10-08T06:44:26;77600.50;;;-146.33
37414;BMP280;23279;46.472;30.760;2023-10-08T06:46:53;77590.34;;;-146.33
37414;BMP280;23279;46.472;30.760;2023-10-08T06:53:45;77567.94;;;-146.33
37414;BMP280;23279;46.472;30.760;2023-10-08T06:56:11;77547.59;;;-146.33
37414;BMP280;23279;46.472;30.760;2023-10-08T06:58:38;77527.25;;;-146.33
37414;BMP280;23279;46.472;30.760;2023-10-08T07:01:04;77519.13;;;-146.33
37414;BMP280;23279;46.472;30.760;2023-10-08T07:03:31;77510.97;;;-146.33
37414;BMP280;23279;46.472;30.760;2023-10-08T07:05:57;77500.81;;;-146.33
37414;BMP280;23279;46.472;30.760;2023-10-08T07:08:24;77482.50;;;-146.33
37414;BMP280;23279;46.472;30.760;2023-10-08T07:10:51;77488.59;;;-146.33
37414;BMP280;23279;46.472;30.760;2023-10-08T07:13:17;77482.50;;;-146.33
37414;BMP280;23279;46.472;30.760;2023-10-08T07:15:45;77470.28;;;-146.33
37414;BMP280;23279;46.472;30.760;2023-10-08T07:18:12;77451.97;;;-146.33
37414;BMP280;23279;46.472;30.760;2023-10-08T07:20:46;77447.91;;;-146.33
37414;BMP280;23279;46.472;30.760;2023-10-08T07:23:18;77441.81;;;-146.33
37414;BMP280;23279;46.472;30.760;2023-10-08T07:25:52;77421.47;;;-146.33
37414;BMP280;23279;46.472;30.760;2023-10-08T07:28:19;77419.44;;;-146.33
37414;BMP280;23279;46.472;30.760;2023-10-08T07:30:45;77399.09;;;-146.33
37414;BMP280;23279;46.472;30.760;2023-10-08T07:33:11;77380.78;;;-146.33
37414;BMP280;23279;46.472;30.760;2023-10-08T07:35:50;77346.19;;;-146.33
37414;BMP280;23279;46.472;30.760;2023-10-08T07:38:26;77340.09;;;-146.33
37414;BMP280;23279;46.472;30.760;2023-10-08T07:40:55;77323.81;;;-146.33
37414;BMP280;23279;46.472;30.760;2023-10-08T07:43:21;77313.63;;;-146.33
37414;BMP280;23279;46.472;30.760;2023-10-08T07:45:47;77319.75;;;-146.33
37414;BMP280;23279;46.472;30.760;2023-10-08T07:48:13;77331.94;;;-146.33
37414;BMP280;23279;46.472;30.760;2023-10-08T07:50:43;77331.94;;;-146.33
37414;BMP280;23279;46.472;30.760;2023-10-08T07:53:10;77331.94;;;-146.33
37414;BMP280;23279;46.472;30.760;2023-10-08T07:55:44;77319.75;;;-146.33
37414;BMP280;23279;46.472;30.760;2023-10-08T07:58:10;77321.78;;;-146.33
37414;BMP280;23279;46.472;30.760;2023-10-08T08:00:36;77309.56;;;-146.33
37414;BMP280;23279;46.472;30.760;2023-10-08T08:03:04;77311.59;;;-146.33
37414;BMP280;23279;46.472;30.760;2023-10-08T08:07:44;77295.34;;;-146.33
37414;BMP280;23279;46.472;30.760;2023-10-08T08:10:15;77275.00;;;-146.33
37414;BMP280;23279;46.472;30.760;2023-10-08T08:12:41;77281.09;;;-146.33
37414;BMP280;23279;46.472;30.760;2023-10-08T08:15:07;77264.81;;;-146.33
37414;BMP280;23279;46.472;30.760;2023-10-08T08:17:42;77260.75;;;-146.33
37414;BMP280;23279;46.472;30.760;2023-10-08T08:20:08;77254.66;;;-146.33
37414;BMP280;23279;46.472;30.760;2023-10-08T08:22:43;77264.81;;;-146.33
37414;BMP280;23279;46.472;30.760;2023-10-08T08:25:19;77266.84;;;-146.33
37414;BMP280;23279;46.472;30.760;2023-10-08T08:28:08;77266.84;;;-146.33
37414;BMP280;23279;46.472;30.760;2023-10-08T08:30:42;77256.69;;;-146.33
37414;BMP280;23279;46.472;30.760;2023-10-08T08:33:12;77256.69;;;-146.33
37414;BMP280;23279;46.472;30.760;2023-10-08T08:35:38;77279.06;;;-146.33
37414;BMP280;23279;46.472;30.760;2023-10-08T08:38:04;77283.13;;;-146.33
37414;BMP280;23279;46.472;30.760;2023-10-08T08:40:31;77287.19;;;-146.33
37414;BMP280;23279;46.472;30.760;2023-10-08T08:42:59;77311.59;;;-146.33
37414;BMP280;23279;46.472;30.760;2023-10-08T08:45:28;77336.03;;;-146.33
37414;BMP280;23279;46.472;30.760;2023-10-08T08:47:58;77340.09;;;-146.33
37414;BMP280;23279;46.472;30.760;2023-10-08T08:52:40;77360.44;;;-146.33
37414;BMP280;23279;46.472;30.760;2023-10-08T08:55:06;77356.38;;;-146.33
37414;BMP280;23279;46.472;30.760;2023-10-08T08:57:41;77362.47;;;-146.33
37414;BMP280;23279;46.472;30.760;2023-10-08T09:00:08;77356.38;;;-146.33
37414;BMP280;23279;46.472;30.760;2023-10-08T09:04:48;77350.25;;;-146.33
37414;BMP280;23279;46.472;30.760;2023-10-08T09:07:14;77340.09;;;-146.33
37414;BMP280;23279;46.472;30.760;2023-10-08T09:09:39;77327.88;;;-146.33
37414;BMP280;23279;46.472;30.760;2023-10-08T09:12:05;77311.59;;;-146.33
37414;BMP280;23279;46.472;30.760;2023-10-08T09:16:44;77307.53;;;-146.33
37414;BMP280;23279;46.472;30.760;2023-10-08T09:19:10;77299.41;;;-146.33
37414;BMP280;23279;46.472;30.760;2023-10-08T09:21:41;77291.25;;;-146.33
37414;BMP280;23279;46.472;30.760;2023-10-08T09:24:07;77307.53;;;-146.33
37414;BMP280;23279;46.472;30.760;2023-10-08T09:26:36;77327.88;;;-146.33
37414;BMP280;23279;46.472;30.760;2023-10-08T09:29:05;77395.03;;;-146.33
37414;BMP280;23279;46.472;30.760;2023-10-08T09:31:33;77415.38;;;-146.33
37414;BMP280;23279;46.472;30.760;2023-10-08T09:34:00;77437.75;;;-146.33
37414;BMP280;23279;46.472;30.760;2023-10-08T09:36:29;77439.78;;;-146.33
37414;BMP280;23279;46.472;30.760;2023-10-08T09:39:00;77439.78;;;-146.33
37414;BMP280;23279;46.472;30.760;2023-10-08T09:41:30;77445.88;;;-146.33
37414;BMP280;23279;46.472;30.760;2023-10-08T09:48:20;77525.22;;;-146.33
37414;BMP280;23279;46.472;30.760;2023-10-08T09:50:47;77578.13;;;-146.33
37414;BMP280;23279;46.472;30.760;2023-10-08T09:53:13;77598.47;;;-146.33
37414;BMP280;23279;46.472;30.760;2023-10-08T09:55:55;77679.84;;;-146.33
37414;BMP280;23279;46.472;30.760;2023-10-08T09:58:26;77742.94;;;-146.33
37414;BMP280;23279;46.472;30.760;2023-10-08T10:05:19;77777.53;;;-146.33
37414;BMP280;23279;46.472;30.760;2023-10-08T10:07:49;77785.66;;;-146.33
37414;BMP280;23279;46.472;30.760;2023-10-08T10:10:28;77808.03;;;-146.33
37414;BMP280;23279;46.472;30.760;2023-10-08T10:12:58;77848.75;;;-146.33
37414;BMP280;23279;46.472;30.760;2023-10-08T10:15:25;77842.63;;;-146.33
37414;BMP280;23279;46.472;30.760;2023-10-08T10:17:51;77834.50;;;-146.33
37414;BMP280;23279;46.472;30.760;2023-10-08T10:20:16;77830.44;;;-146.33
37414;BMP280;23279;46.472;30.760;2023-10-08T10:22:42;77803.97;;;-146.33
37414;BMP280;23279;46.472;30.760;2023-10-08T10:25:09;77838.56;;;-146.33
37414;BMP280;23279;46.472;30.760;2023-10-08T10:34:51;77830.44;;;-146.33
37414;BMP280;23279;46.472;30.760;2023-10-08T10:39:31;77706.31;;;-146.33
37414;BMP280;23279;46.472;30.760;2023-10-08T10:44:15;77504.88;;;-146.33
37414;BMP280;23279;46.472;30.760;2023-10-08T10:53:27;77236.34;;;-146.33
37414;BMP280;23279;46.472;30.760;2023-10-08T10:55:55;77148.84;;;-146.33
37414;BMP280;23279;46.472;30.760;2023-10-08T10:58:31;77100.03;;;-146.33
37414;BMP280;23279;46.472;30.760;2023-10-08T11:01:04;77043.06;;;-146.33
37414;BMP280;23279;46.472;30.760;2023-10-08T11:05:59;76888.47;;;-146.33
37414;BMP280;23279;46.472;30.760;2023-10-08T11:08:26;76803.06;;;-146.33
37414;BMP280;23279;46.472;30.760;2023-10-08T11:13:07;76685.06;;;-146.33
37414;BMP280;23279;46.472;30.760;2023-10-08T11:15:40;76636.25;;;-146.33
37414;BMP280;23279;46.472;30.760;2023-10-08T11:18:16;76650.50;;;-146.33
37414;BMP280;23279;46.472;30.760;2023-10-08T11:20:42;76689.16;;;-146.33
37414;BMP280;23279;46.472;30.760;2023-10-08T11:23:33;76703.38;;;-146.33
37414;BMP280;23279;46.472;30.760;2023-10-08T11:26:01;76847.81;;;-146.33
37414;BMP280;23279;46.472;30.760;2023-10-08T11:28:39;77073.59;;;-146.33
37414;BMP280;23279;46.472;30.760;2023-10-08T11:31:12;77368.56;;;-146.33
37414;BMP280;23279;46.472;30.760;2023-10-08T11:33:43;77484.53;;;-146.33
37414;BMP280;23279;46.472;30.760;2023-10-08T11:38:40;77594.41;;;-146.33
37414;BMP280;23279;46.472;30.760;2023-10-08T11:41:12;77641.19;;;-146.33
37414;BMP280;23279;46.472;30.760;2023-10-08T11:43:47;77690.03;;;-146.33
37414;BMP280;23279;46.472;30.760;2023-10-08T11:46:13;77787.69;;;-146.33
37414;BMP280;23279;46.472;30.760;2023-10-08T11:48:43;77889.44;;;-146.33
37414;BMP280;23279;46.472;30.760;2023-10-08T11:51:12;77962.69;;;-146.33
37414;BMP280;23279;46.472;30.760;2023-10-08T11:53:38;78015.59;;;-146.33
37414;BMP280;23279;46.472;30.760;2023-10-08T11:58:17;78031.88;;;-146.33
37414;BMP280;23279;46.472;30.760;2023-10-08T12:00:44;77995.25;;;-146.33
37414;BMP280;23279;46.472;30.760;2023-10-08T12:03:13;77960.66;;;-146.33
37414;BMP280;23279;46.472;30.760;2023-10-08T12:05:43;77950.47;;;-146.33
37414;BMP280;23279;46.472;30.760;2023-10-08T12:12:52;77651.38;;;-146.33
37414;BMP280;23279;46.472;30.760;2023-10-08T12:15:23;77633.06;;;-146.33
37414;BMP280;23279;46.472;30.760;2023-10-08T12:17:59;77685.97;;;-146.33
37414;BMP280;23279;46.472;30.760;2023-10-08T12:20:39;77783.63;;;-146.33
37414;BMP280;23279;46.472;30.760;2023-10-08T12:23:11;77775.50;;;-146.33
37414;BMP280;23279;46.472;30.760;2023-10-08T12:27:55;77761.25;;;-146.33
37414;BMP280;23279;46.472;30.760;2023-10-08T12:30:22;77720.56;;;-146.33
37414;BMP280;23279;46.472;30.760;2023-10-08T12:32:56;77665.63;;;-146.33
37414;BMP280;23279;46.472;30.760;2023-10-08T12:35:23;77663.59;;;-146.33
37414;BMP280;23279;46.472;30.760;2023-10-08T12:37:52;77641.19;;;-146.33
37414;BMP280;23279;46.472;30.760;2023-10-08T12:40:19;77655.44;;;-146.33
37414;BMP280;23279;46.472;30.760;2023-10-08T12:42:53;77690.03;;;-146.33
37414;BMP280;23279;46.472;30.760;2023-10-08T12:45:20;77639.16;;;-146.33
37414;BMP280;23279;46.472;30.760;2023-10-08T12:47:52;77614.75;;;-146.33
37414;BMP280;23279;46.472;30.760;2023-10-08T12:50:19;77604.56;;;-146.33
37414;BMP280;23279;46.472;30.760;2023-10-08T12:52:57;77783.63;;;-146.33
37414;BMP280;23279;46.472;30.760;2023-10-08T12:55:26;77753.09;;;-146.33
37414;BMP280;23279;46.472;30.760;2023-10-08T12:57:52;77677.81;;;-146.33
37414;BMP280;23279;46.472;30.760;2023-10-08T13:02:51;77437.75;;;-146.33
37414;BMP280;23279;46.472;30.760;2023-10-08T13:07:31;77372.63;;;-146.33
37414;BMP280;23279;46.472;30.760;2023-10-08T13:10:04;77397.06;;;-146.33
37414;BMP280;23279;46.472;30.760;2023-10-08T13:12:29;77441.81;;;-146.33
37414;BMP280;23279;46.472;30.760;2023-10-08T13:19:20;77378.75;;;-146.33
37414;BMP280;23279;46.472;30.760;2023-10-08T13:21:48;77352.28;;;-146.33
37414;BMP280;23279;46.472;30.760;2023-10-08T13:24:17;77311.59;;;-146.33
37414;BMP280;23279;46.472;30.760;2023-10-08T13:26:43;77260.75;;;-146.33
37414;BMP280;23279;46.472;30.760;2023-10-08T13:31:26;77144.78;;;-146.33
37414;BMP280;23279;46.472;30.760;2023-10-08T13:33:51;77116.31;;;-146.33
37414;BMP280;23279;46.472;30.760;2023-10-08T13:36:18;77073.59;;;-146.33
37414;BMP280;23279;46.472;30.760;2023-10-08T13:38:44;77112.25;;;-146.33
37414;BMP280;23279;46.472;30.760;2023-10-08T13:43:24;77063.41;;;-146.33
37414;BMP280;23279;46.472;30.760;2023-10-08T13:45:58;77211.94;;;-146.33
37414;BMP280;23279;46.472;30.760;2023-10-08T13:48:24;77344.16;;;-146.33
37414;BMP280;23279;46.472;30.760;2023-10-08T13:50:49;77451.97;;;-146.33
37414;BMP280;23279;46.472;30.760;2023-10-08T13:53:15;77590.34;;;-146.33
37414;BMP280;23279;46.472;30.760;2023-10-08T13:55:40;77720.56;;;-146.33
37414;BMP280;23279;46.472;30.760;2023-10-08T13:58:10;77787.69;;;-146.33
37414;BMP280;23279;46.472;30.760;2023-10-08T14:02:50;77924.03;;;-146.33
37414;BMP280;23279;46.472;30.760;2023-10-08T14:05:16;77952.53;;;-146.33
37414;BMP280;23279;46.472;30.760;2023-10-08T14:07:43;77942.34;;;-146.33
37414;BMP280;23279;46.472;30.760;2023-10-08T14:10:10;77983.03;;;-146.33
37414;BMP280;23279;46.472;30.760;2023-10-08T14:12:44;78062.41;;;-146.33
37414;BMP280;23279;46.472;30.760;2023-10-08T14:15:15;78121.41;;;-146.33
37414;BMP280;23279;46.472;30.760;2023-10-08T14:22:06;78153.97;;;-146.33
37414;BMP280;23279;46.472;30.760;2023-10-08T14:24:34;78198.75;;;-146.33
37414;BMP280;23279;46.472;30.760;2023-10-08T14:27:03;78194.69;;;-146.33
37414;BMP280;23279;46.472;30.760;2023-10-08T14:29:38;78237.41;;;-146.33
37414;BMP280;23279;46.472;30.760;2023-10-08T14:32:06;78245.56;;;-146.33
37414;BMP280;23279;46.472;30.760;2023-10-08T14:34:37;78263.88;;;-146.33
37414;BMP280;23279;46.472;30.760;2023-10-08T14:39:21;78296.44;;;-146.33
37414;BMP280;23279;46.472;30.760;2023-10-08T14:42:05;78294.41;;;-146.33
37414;BMP280;23279;46.472;30.760;2023-10-08T14:44:48;78331.03;;;-146.33
37414;BMP280;23279;46.472;30.760;2023-10-08T14:47:16;78349.34;;;-146.33
37414;BMP280;23279;46.472;30.760;2023-10-08T14:49:41;78394.13;;;-146.33
37414;BMP280;23279;46.472;30.760;2023-10-08T14:54:20;78400.22;;;-146.33
37414;BMP280;23279;46.472;30.760;2023-10-08T14:56:46;78402.25;;;-146.33
37414;BMP280;23279;46.472;30.760;2023-10-08T14:59:12;78422.59;;;-146.33
37414;BMP280;23279;46.472;30.760;2023-10-08T15:01:38;78432.78;;;-146.33
37414;BMP280;23279;46.472;30.760;2023-10-08T15:04:04;78463.31;;;-146.33
37414;BMP280;23279;46.472;30.760;2023-10-08T15:10:55;78453.13;;;-146.33
37414;BMP280;23279;46.472;30.760;2023-10-08T15:13:20;78453.13;;;-146.33
37414;BMP280;23279;46.472;30.760;2023-10-08T15:15:45;78459.25;;;-146.33
37414;BMP280;23279;46.472;30.760;2023-10-08T15:18:11;78461.28;;;-146.33
37414;BMP280;23279;46.472;30.760;2023-10-08T15:20:37;78459.25;;;-146.33
37414;BMP280;23279;46.472;30.760;2023-10-08T15:23:02;78471.44;;;-146.33
37414;BMP280;23279;46.472;30.760;2023-10-08T15:25:29;78479.59;;;-146.33
37414;BMP280;23279;46.472;30.760;2023-10-08T15:32:19;78522.34;;;-146.33
37414;BMP280;23279;46.472;30.760;2023-10-08T15:36:58;78536.59;;;-146.33